createdAt,value
2017-09-09T00:00:49.794Z,94.84
2017-09-09T00:02:02.057Z,94.84
2017-09-09T00:03:14.289Z,95.7
2017-09-09T00:04:26.924Z,95.94
2017-09-09T00:05:39.194Z,96.08
2017-09-09T00:06:51.187Z,95.41
2017-09-09T00:08:03.168Z,95.12
2017-09-09T00:09:14.806Z,94.98
2017-09-09T00:10:26.721Z,95.79
2017-09-09T00:11:39.417Z,95.51
2017-09-09T00:12:52.062Z,95.89
2017-09-09T00:14:04.346Z,95.46
2017-09-09T00:15:16.328Z,95.07
2017-09-09T00:16:28.615Z,95.32
2017-09-09T00:17:40.565Z,95.7
2017-09-09T00:18:53.179Z,95.79
2017-09-09T00:20:05.623Z,95.7
2017-09-09T00:21:18.295Z,95.79
2017-09-09T00:22:30.932Z,96.56
2017-09-09T00:23:43.494Z,95.98
2017-09-09T00:24:55.807Z,95.89
2017-09-09T00:26:08.051Z,95.94
2017-09-09T00:27:20.684Z,95.94
2017-09-09T00:28:32.656Z,96.46
2017-09-09T00:29:44.913Z,96.22
2017-09-09T00:30:57.487Z,96.84
2017-09-09T00:32:09.780Z,96.94
2017-09-09T00:33:22.056Z,96.46
2017-09-09T00:34:34.679Z,97.56
2017-09-09T00:35:47.269Z,97.75
2017-09-09T00:36:59.518Z,97.85
2017-09-09T00:38:12.127Z,98.28
2017-09-09T00:39:24.681Z,97.37
2017-09-09T00:40:37.336Z,97.52
2017-09-09T00:41:49.913Z,98.28
2017-09-09T00:43:01.874Z,97.42
2017-09-09T00:44:14.517Z,97.13
2017-09-09T00:45:27.169Z,96.66
2017-09-09T00:46:39.755Z,97.32
2017-09-09T00:47:52.049Z,98.94
2017-09-09T00:49:04.625Z,98.28
2017-09-09T00:50:17.215Z,98.18
2017-09-09T00:51:29.839Z,97.89
2017-09-09T00:52:42.374Z,97.13
2017-09-09T00:53:54.328Z,97.61
2017-09-09T00:55:06.950Z,97.66
2017-09-09T00:56:19.461Z,97.99
2017-09-09T00:57:31.689Z,98.08
2017-09-09T00:58:44.243Z,97.52
2017-09-09T00:59:56.498Z,97.61
2017-09-09T01:01:08.150Z,97.42
2017-09-09T01:02:20.458Z,97.13
2017-09-09T01:03:33.376Z,97.42
2017-09-09T01:04:46.006Z,97.42
2017-09-09T01:05:58.537Z,97.99
2017-09-09T01:07:11.105Z,97.13
2017-09-09T01:08:23.100Z,98.08
2017-09-09T01:09:35.345Z,97.99
2017-09-09T01:10:47.915Z,97.61
2017-09-09T01:11:59.887Z,97.99
2017-09-09T01:13:11.834Z,98.08
2017-09-09T01:14:24.346Z,97.99
2017-09-09T01:15:36.291Z,97.61
2017-09-09T01:16:48.638Z,98.47
2017-09-09T01:18:01.244Z,98.18
2017-09-09T01:19:13.489Z,97.52
2017-09-09T01:20:25.756Z,97.52
2017-09-09T01:21:38.030Z,97.42
2017-09-09T01:22:50.313Z,98.23
2017-09-09T01:24:02.701Z,97.52
2017-09-09T01:25:15.066Z,98.28
2017-09-09T01:26:27.345Z,97.56
2017-09-09T01:27:39.934Z,97.56
2017-09-09T01:28:52.225Z,97.42
2017-09-09T01:30:04.853Z,96.94
2017-09-09T01:31:17.485Z,97.32
2017-09-09T01:32:29.731Z,97.52
2017-09-09T01:33:41.637Z,97.13
2017-09-09T01:34:54.290Z,96.56
2017-09-09T01:36:07.100Z,97.52
2017-09-09T01:37:19.719Z,97.42
2017-09-09T01:38:32.267Z,97.61
2017-09-09T01:39:44.513Z,97.42
2017-09-09T01:40:56.762Z,97.37
2017-09-09T01:42:09.402Z,97.23
2017-09-09T01:43:21.677Z,97.32
2017-09-09T01:44:34.270Z,97.66
2017-09-09T01:45:45.944Z,97.08
2017-09-09T01:46:58.504Z,97.75
2017-09-09T01:48:10.768Z,97.56
2017-09-09T01:49:23.045Z,98.33
2017-09-09T01:50:35.298Z,98.42
2017-09-09T01:51:47.860Z,97.18
2017-09-09T01:53:00.139Z,98.04
2017-09-09T01:54:12.753Z,98.13
2017-09-09T01:55:25.016Z,98.13
2017-09-09T01:56:37.249Z,97.94
2017-09-09T01:57:49.784Z,98.23
2017-09-09T01:59:02.068Z,99.09
2017-09-09T02:00:14.674Z,98.99
2017-09-09T02:01:27.251Z,98.61
2017-09-09T02:02:39.828Z,97.75
2017-09-09T02:03:52.125Z,98.13
2017-09-09T02:05:04.427Z,98.04
2017-09-09T02:06:17.048Z,98.52
2017-09-09T02:07:29.611Z,97.75
2017-09-09T02:08:42.140Z,98.04
2017-09-09T02:09:54.431Z,97.47
2017-09-09T02:11:06.983Z,98.13
2017-09-09T02:12:19.531Z,98.13
2017-09-09T02:13:31.801Z,97.66
2017-09-09T02:14:44.361Z,98.23
2017-09-09T02:15:56.019Z,98.33
2017-09-09T02:17:08.252Z,97.37
2017-09-09T02:18:20.832Z,97.94
2017-09-09T02:19:33.454Z,98.52
2017-09-09T02:20:45.786Z,98.13
2017-09-09T02:21:57.741Z,98.61
2017-09-09T02:23:10.305Z,99.19
2017-09-09T02:24:22.927Z,98.13
2017-09-09T02:25:35.150Z,98.71
2017-09-09T02:26:47.477Z,98.52
2017-09-09T02:28:00.085Z,98.71
2017-09-09T02:29:12.409Z,99.09
2017-09-09T02:30:25.023Z,98.13
2017-09-09T02:31:37.554Z,99.28
2017-09-09T02:32:49.826Z,99.57
2017-09-09T02:34:01.759Z,99.76
2017-09-09T02:35:14.340Z,98.61
2017-09-09T02:36:26.351Z,98.8
2017-09-09T02:37:38.595Z,98.52
2017-09-09T02:38:50.897Z,98.99
2017-09-09T02:40:02.837Z,98.52
2017-09-09T02:41:15.341Z,98.71
2017-09-09T02:42:27.976Z,99.48
2017-09-09T02:43:40.229Z,98.99
2017-09-09T02:44:52.509Z,99.09
2017-09-09T02:46:04.777Z,98.61
2017-09-09T02:47:16.386Z,99.09
2017-09-09T02:48:29.024Z,99.19
2017-09-09T02:49:41.321Z,98.52
2017-09-09T02:50:53.919Z,99.19
2017-09-09T02:52:05.854Z,98.99
2017-09-09T02:53:18.120Z,99.19
2017-09-09T02:54:30.694Z,99.48
2017-09-09T02:55:43.266Z,98.99
2017-09-09T02:56:55.532Z,98.99
2017-09-09T02:58:08.165Z,98.71
2017-09-09T02:59:20.716Z,99.38
2017-09-09T03:00:32.999Z,98.99
2017-09-09T03:01:45.597Z,99.85
2017-09-09T03:02:58.079Z,98.9
2017-09-09T03:04:10.338Z,98.61
2017-09-09T03:05:22.903Z,98.8
2017-09-09T03:06:35.137Z,99.09
2017-09-09T03:07:47.773Z,99.19
2017-09-09T03:09:00.350Z,98.8
2017-09-09T03:10:12.011Z,98.52
2017-09-09T03:11:24.317Z,98.42
2017-09-09T03:12:36.930Z,99.38
2017-09-09T03:13:48.898Z,98.99
2017-09-09T03:15:01.459Z,98.61
2017-09-09T03:16:13.712Z,99.28
2017-09-09T03:17:26.320Z,99.19
2017-09-09T03:18:38.909Z,98.9
2017-09-09T03:19:51.169Z,99.99
2017-09-09T03:21:03.375Z,99.38
2017-09-09T03:22:15.684Z,99.57
2017-09-09T03:23:28.255Z,99.57
2017-09-09T03:24:40.732Z,99.09
2017-09-09T03:25:53.334Z,99.95
2017-09-09T03:27:05.588Z,99.99
2017-09-09T03:28:17.512Z,99.95
2017-09-09T03:29:29.772Z,99.28
2017-09-09T03:30:42.366Z,99.85
2017-09-09T03:31:54.933Z,99.85
2017-09-09T03:33:06.532Z,99.66
2017-09-09T03:34:18.816Z,99.99
2017-09-09T03:35:31.105Z,99.99
2017-09-09T03:36:43.407Z,99.85
2017-09-09T03:37:55.610Z,99.99
2017-09-09T03:39:08.206Z,99.99
2017-09-09T03:40:20.480Z,99.71
2017-09-09T03:41:32.745Z,99.81
2017-09-09T03:42:45.361Z,99.71
2017-09-09T03:43:57.624Z,99.99
2017-09-09T03:45:10.214Z,99.99
2017-09-09T03:46:22.783Z,99.99
2017-09-09T03:47:35.362Z,99.81
2017-09-09T03:48:47.922Z,99.99
2017-09-09T03:50:00.196Z,99.99
2017-09-09T03:51:12.505Z,99.71
2017-09-09T03:52:24.416Z,99.99
2017-09-09T03:53:36.670Z,99.99
2017-09-09T03:54:48.672Z,99.99
2017-09-09T03:56:00.646Z,99.99
2017-09-09T03:57:12.576Z,99.9
2017-09-09T03:58:25.212Z,99.99
2017-09-09T03:59:37.460Z,99.99
2017-09-09T04:00:50.054Z,99.99
2017-09-09T04:02:02.700Z,99.99
2017-09-09T04:03:14.974Z,99.99
2017-09-09T04:04:27.207Z,99.99
2017-09-09T04:05:39.436Z,99.99
2017-09-09T04:06:52.063Z,99.99
2017-09-09T04:08:04.669Z,99.99
2017-09-09T04:09:16.608Z,99.99
2017-09-09T04:10:28.897Z,99.99
2017-09-09T04:11:40.906Z,99.99
2017-09-09T04:12:53.140Z,99.99
2017-09-09T04:14:05.396Z,99.99
2017-09-09T04:15:17.987Z,99.99
2017-09-09T04:16:30.584Z,99.99
2017-09-09T04:17:42.878Z,99.99
2017-09-09T04:18:55.743Z,99.99
2017-09-09T04:20:07.683Z,99.99
2017-09-09T04:21:19.964Z,99.99
2017-09-09T04:22:31.991Z,99.99
2017-09-09T04:23:44.248Z,99.99
2017-09-09T04:24:55.662Z,99.99
2017-09-09T04:26:07.573Z,99.99
2017-09-09T04:27:20.160Z,99.99
2017-09-09T04:28:32.780Z,99.99
2017-09-09T04:29:45.346Z,99.99
2017-09-09T04:30:57.969Z,99.99
2017-09-09T04:32:10.549Z,99.99
2017-09-09T04:33:22.834Z,99.99
2017-09-09T04:34:35.492Z,99.99
2017-09-09T04:35:47.705Z,99.99
2017-09-09T04:37:00.028Z,99.99
2017-09-09T04:38:12.371Z,99.99
2017-09-09T04:39:24.688Z,99.99
2017-09-09T04:40:37.218Z,99.99
2017-09-09T04:41:49.815Z,99.99
2017-09-09T04:43:02.073Z,99.99
2017-09-09T04:44:14.399Z,99.99
2017-09-09T04:45:27.034Z,99.99
2017-09-09T04:46:39.286Z,99.99
2017-09-09T04:47:51.515Z,99.99
2017-09-09T04:49:03.482Z,99.99
2017-09-09T04:50:16.100Z,99.99
2017-09-09T04:51:28.441Z,99.99
2017-09-09T04:52:41.047Z,99.99
2017-09-09T04:53:53.645Z,99.99
2017-09-09T04:55:06.268Z,99.99
2017-09-09T04:56:18.902Z,99.99
2017-09-09T04:57:31.515Z,99.99
2017-09-09T04:58:43.778Z,99.99
2017-09-09T04:59:55.797Z,99.99
2017-09-09T05:01:07.800Z,99.99
2017-09-09T05:02:20.066Z,99.99
2017-09-09T05:03:32.651Z,99.99
2017-09-09T05:04:45.201Z,99.99
2017-09-09T05:05:57.523Z,99.99
2017-09-09T05:07:09.513Z,99.99
2017-09-09T05:08:21.740Z,99.99
2017-09-09T05:09:34.324Z,99.99
2017-09-09T05:10:46.906Z,99.99
2017-09-09T05:11:59.437Z,99.99
2017-09-09T05:13:11.369Z,99.99
2017-09-09T05:14:23.343Z,99.99
2017-09-09T05:15:35.935Z,99.99
2017-09-09T05:16:48.532Z,99.99
2017-09-09T05:18:01.098Z,99.99
2017-09-09T05:19:13.721Z,99.99
2017-09-09T05:20:26.276Z,99.99
2017-09-09T05:21:38.571Z,99.99
2017-09-09T05:22:50.880Z,99.99
2017-09-09T05:24:02.838Z,99.99
2017-09-09T05:25:15.106Z,99.99
2017-09-09T05:26:27.671Z,99.99
2017-09-09T05:27:39.656Z,99.99
2017-09-09T05:28:51.910Z,99.99
2017-09-09T05:30:03.859Z,99.99
2017-09-09T05:31:16.123Z,99.99
2017-09-09T05:32:28.370Z,99.99
2017-09-09T05:33:40.645Z,99.99
2017-09-09T05:34:52.905Z,99.99
2017-09-09T05:36:05.515Z,99.99
2017-09-09T05:37:17.472Z,99.99
2017-09-09T05:38:30.025Z,99.99
2017-09-09T05:39:42.324Z,99.99
2017-09-09T05:40:54.944Z,99.99
2017-09-09T05:42:07.544Z,99.99
2017-09-09T05:43:19.807Z,99.99
2017-09-09T05:44:32.403Z,99.99
2017-09-09T05:45:44.676Z,99.99
2017-09-09T05:46:57.021Z,99.99
2017-09-09T05:48:09.302Z,99.99
2017-09-09T05:49:21.891Z,99.99
2017-09-09T05:50:34.180Z,99.99
2017-09-09T05:51:46.777Z,99.99
2017-09-09T05:52:59.113Z,99.99
2017-09-09T05:54:11.719Z,99.99
2017-09-09T05:55:23.700Z,99.99
2017-09-09T05:56:36.032Z,99.99
2017-09-09T05:57:48.656Z,99.99
2017-09-09T05:59:01.201Z,99.99
2017-09-09T06:00:13.514Z,99.99
2017-09-09T06:01:26.128Z,99.99
2017-09-09T06:02:38.736Z,99.99
2017-09-09T06:03:51.019Z,99.99
2017-09-09T06:05:03.292Z,99.99
2017-09-09T06:06:15.591Z,99.99
2017-09-09T06:07:27.737Z,99.99
2017-09-09T06:08:40.020Z,99.99
2017-09-09T06:09:52.639Z,99.99
2017-09-09T06:11:04.932Z,99.99
2017-09-09T06:12:16.821Z,99.99
2017-09-09T06:13:28.785Z,99.99
2017-09-09T06:14:41.439Z,99.99
2017-09-09T06:15:53.998Z,99.99
2017-09-09T06:17:05.934Z,99.99
2017-09-09T06:18:18.460Z,99.99
2017-09-09T06:19:31.057Z,99.99
2017-09-09T06:20:43.647Z,99.99
2017-09-09T06:21:55.870Z,99.99
2017-09-09T06:23:07.792Z,99.99
2017-09-09T06:24:20.302Z,99.99
2017-09-09T06:25:32.828Z,99.91
2017-09-09T06:26:45.428Z,99.99
2017-09-09T06:27:58.014Z,99.99
2017-09-09T06:29:10.641Z,99.99
2017-09-09T06:30:22.902Z,99.99
2017-09-09T06:31:34.862Z,99.99
2017-09-09T06:32:47.116Z,99.99
2017-09-09T06:33:59.401Z,99.99
2017-09-09T06:35:12.059Z,99.99
2017-09-09T06:36:24.669Z,99.99
2017-09-09T06:37:37.290Z,99.99
2017-09-09T06:38:49.569Z,99.99
2017-09-09T06:40:02.164Z,99.99
2017-09-09T06:41:14.414Z,99.99
2017-09-09T06:42:26.369Z,99.99
2017-09-09T06:43:38.925Z,99.99
2017-09-09T06:44:51.214Z,99.99
2017-09-09T06:46:03.538Z,99.99
2017-09-09T06:47:15.580Z,99.99
2017-09-09T06:48:28.151Z,99.99
2017-09-09T06:49:40.775Z,99.99
2017-09-09T06:50:53.091Z,99.99
2017-09-09T06:52:05.094Z,99.99
2017-09-09T06:53:17.705Z,99.99
2017-09-09T06:54:29.956Z,99.99
2017-09-09T06:55:42.571Z,99.99
2017-09-09T06:56:55.117Z,99.99
2017-09-09T06:58:07.094Z,99.99
2017-09-09T06:59:19.659Z,99.99
2017-09-09T07:00:32.204Z,99.99
2017-09-09T07:01:44.778Z,99.99
2017-09-09T07:02:56.446Z,99.99
2017-09-09T07:04:08.769Z,99.99
2017-09-09T07:05:21.389Z,99.99
2017-09-09T07:06:33.971Z,99.99
2017-09-09T07:07:46.603Z,99.99
2017-09-09T07:08:59.191Z,99.99
2017-09-09T07:10:11.476Z,99.99
2017-09-09T07:11:23.801Z,99.99
2017-09-09T07:12:36.342Z,99.99
2017-09-09T07:13:48.598Z,99.99
2017-09-09T07:15:01.213Z,99.99
2017-09-09T07:16:13.539Z,99.99
2017-09-09T07:17:25.810Z,99.99
2017-09-09T07:18:37.749Z,99.99
2017-09-09T07:19:50.038Z,99.99
2017-09-09T07:21:02.630Z,99.99
2017-09-09T07:22:14.961Z,99.99
2017-09-09T07:23:27.231Z,99.99
2017-09-09T07:24:39.894Z,99.99
2017-09-09T07:25:52.454Z,99.99
2017-09-09T07:27:04.701Z,99.99
2017-09-09T07:28:17.282Z,99.99
2017-09-09T07:29:29.586Z,99.99
2017-09-09T07:30:42.146Z,99.99
2017-09-09T07:31:54.102Z,99.99
2017-09-09T07:33:06.386Z,99.99
2017-09-09T07:34:18.649Z,99.99
2017-09-09T07:35:30.963Z,99.99
2017-09-09T07:36:43.648Z,99.99
2017-09-09T07:37:56.244Z,99.99
2017-09-09T07:39:08.545Z,99.99
2017-09-09T07:40:20.839Z,99.99
2017-09-09T07:41:32.782Z,99.99
2017-09-09T07:42:44.752Z,99.99
2017-09-09T07:43:57.289Z,99.99
2017-09-09T07:45:09.829Z,99.91
2017-09-09T07:46:22.091Z,99.82
2017-09-09T07:47:34.337Z,99.91
2017-09-09T07:48:46.921Z,99.82
2017-09-09T07:49:58.574Z,99.34
2017-09-09T07:51:10.531Z,99.63
2017-09-09T07:52:22.841Z,99.24
2017-09-09T07:53:35.461Z,98.96
2017-09-09T07:54:47.391Z,98.91
2017-09-09T07:55:58.995Z,99
2017-09-09T07:57:11.285Z,98.38
2017-09-09T07:58:23.897Z,98.28
2017-09-09T07:59:36.168Z,99.24
2017-09-09T08:00:48.438Z,99.05
2017-09-09T08:02:01.032Z,98.38
2017-09-09T08:03:13.308Z,98.38
2017-09-09T08:04:25.521Z,98.19
2017-09-09T08:05:38.161Z,98.76
2017-09-09T08:06:50.651Z,97.8
2017-09-09T08:08:02.971Z,97.8
2017-09-09T08:09:15.616Z,97.33
2017-09-09T08:10:27.862Z,97.47
2017-09-09T08:11:39.872Z,97.33
2017-09-09T08:12:52.459Z,98.28
2017-09-09T08:14:05.090Z,96.75
2017-09-09T08:15:17.044Z,96.94
2017-09-09T08:16:29.360Z,97.71
2017-09-09T08:17:41.661Z,96.66
2017-09-09T08:18:54.005Z,96.94
2017-09-09T08:20:06.297Z,96.61
2017-09-09T08:21:18.917Z,96.89
2017-09-09T08:22:31.257Z,96.75
2017-09-09T08:23:43.501Z,96.03
2017-09-09T08:24:56.101Z,95.6
2017-09-09T08:26:08.383Z,95.03
2017-09-09T08:27:20.953Z,94.64
2017-09-09T08:28:33.511Z,94.98
2017-09-09T08:29:45.842Z,94.4
2017-09-09T08:30:58.083Z,94.4
2017-09-09T08:32:10.403Z,94.02
2017-09-09T08:33:22.650Z,93.74
2017-09-09T08:34:35.230Z,94.12
2017-09-09T08:35:47.827Z,93.74
2017-09-09T08:37:00.421Z,93.93
2017-09-09T08:38:12.342Z,93.26
2017-09-09T08:39:24.640Z,92.68
2017-09-09T08:40:36.968Z,93.26
2017-09-09T08:41:49.229Z,92.4
2017-09-09T08:43:01.532Z,92.49
2017-09-09T08:44:13.178Z,91.44
2017-09-09T08:45:24.831Z,92.87
2017-09-09T08:46:37.123Z,91.82
2017-09-09T08:47:49.417Z,91.82
2017-09-09T08:49:02.039Z,91.63
2017-09-09T08:50:14.331Z,91.53
2017-09-09T08:51:26.595Z,91.92
2017-09-09T08:52:39.211Z,91.25
2017-09-09T08:53:51.786Z,91.44
2017-09-09T08:55:03.763Z,90.96
2017-09-09T08:56:16.098Z,91.53
2017-09-09T08:57:28.623Z,90.96
2017-09-09T08:58:40.622Z,91.05
2017-09-09T08:59:52.800Z,91.25
2017-09-09T09:01:05.374Z,90.77
2017-09-09T09:02:17.950Z,90.48
2017-09-09T09:03:30.557Z,90
2017-09-09T09:04:42.543Z,89.81
2017-09-09T09:05:54.486Z,89.43
2017-09-09T09:07:06.145Z,89.62
2017-09-09T09:08:18.392Z,90.09
2017-09-09T09:09:30.973Z,89.04
2017-09-09T09:10:43.285Z,89.23
2017-09-09T09:11:56.103Z,89.14
2017-09-09T09:13:08.009Z,89.28
2017-09-09T09:14:19.988Z,88.32
2017-09-09T09:15:32.539Z,88.61
2017-09-09T09:16:44.803Z,88.32
2017-09-09T09:17:57.009Z,89.09
2017-09-09T09:19:09.270Z,88.61
2017-09-09T09:20:21.573Z,88.8
2017-09-09T09:21:33.518Z,87.84
2017-09-09T09:22:46.131Z,87.65
2017-09-09T09:23:58.402Z,86.69
2017-09-09T09:25:10.680Z,86.69
2017-09-09T09:26:22.388Z,86.6
2017-09-09T09:27:34.706Z,86.98
2017-09-09T09:28:47.329Z,86.79
2017-09-09T09:29:59.581Z,87.65
2017-09-09T09:31:11.953Z,86.6
2017-09-09T09:32:24.204Z,86.21
2017-09-09T09:33:36.155Z,86.88
2017-09-09T09:34:48.106Z,86.6
2017-09-09T09:36:00.365Z,85.83
2017-09-09T09:37:12.707Z,85.16
2017-09-09T09:38:24.964Z,84.97
2017-09-09T09:39:36.946Z,84.97
2017-09-09T09:40:49.522Z,84.2
2017-09-09T09:42:01.831Z,83.53
2017-09-09T09:43:13.807Z,82.67
2017-09-09T09:44:26.361Z,82.29
2017-09-09T09:45:38.989Z,82.09
2017-09-09T09:46:51.589Z,82.96
2017-09-09T09:48:03.858Z,82.19
2017-09-09T09:49:15.523Z,82.19
2017-09-09T09:50:28.096Z,82.29
2017-09-09T09:51:40.427Z,82.57
2017-09-09T09:52:52.409Z,81.71
2017-09-09T09:54:04.785Z,82.29
2017-09-09T09:55:17.371Z,81.71
2017-09-09T09:56:29.592Z,81.37
2017-09-09T09:57:41.574Z,81.04
2017-09-09T09:58:54.174Z,81.37
2017-09-09T10:00:06.455Z,81.37
2017-09-09T10:01:19.005Z,80.6
2017-09-09T10:02:31.609Z,81.08
2017-09-09T10:03:44.228Z,81.27
2017-09-09T10:04:56.470Z,80.7
2017-09-09T10:06:09.119Z,81.27
2017-09-09T10:07:21.728Z,81.85
2017-09-09T10:08:33.680Z,80.6
2017-09-09T10:09:45.972Z,80.89
2017-09-09T10:10:57.943Z,80.22
2017-09-09T10:12:10.562Z,80.51
2017-09-09T10:13:22.517Z,80.99
2017-09-09T10:14:34.745Z,80.6
2017-09-09T10:15:46.388Z,80.12
2017-09-09T10:16:58.712Z,79.93
2017-09-09T10:18:11.325Z,79.83
2017-09-09T10:19:23.285Z,79.55
2017-09-09T10:20:35.899Z,79.68
2017-09-09T10:21:48.187Z,79.39
2017-09-09T10:23:00.240Z,79.39
2017-09-09T10:24:12.497Z,79.45
2017-09-09T10:25:24.762Z,79.45
2017-09-09T10:26:36.720Z,79.36
2017-09-09T10:27:49.323Z,78.97
2017-09-09T10:29:01.687Z,78.97
2017-09-09T10:30:14.299Z,78.49
2017-09-09T10:31:26.263Z,78.4
2017-09-09T10:32:38.187Z,78.88
2017-09-09T10:33:50.758Z,78.4
2017-09-09T10:35:03.071Z,78.02
2017-09-09T10:36:15.618Z,77.63
2017-09-09T10:37:27.906Z,77.53
2017-09-09T10:38:40.552Z,77.53
2017-09-09T10:39:52.547Z,76.19
2017-09-09T10:41:05.100Z,76
2017-09-09T10:42:17.632Z,75.9
2017-09-09T10:43:29.959Z,75.65
2017-09-09T10:44:41.933Z,76.86
2017-09-09T10:45:54.213Z,76.57
2017-09-09T10:47:06.504Z,77.19
2017-09-09T10:48:19.073Z,76.71
2017-09-09T10:49:31.338Z,76.62
2017-09-09T10:50:43.603Z,76.04
2017-09-09T10:51:55.568Z,76.32
2017-09-09T10:53:07.546Z,76.42
2017-09-09T10:54:20.177Z,76.81
2017-09-09T10:55:32.765Z,76.14
2017-09-09T10:56:44.707Z,76.04
2017-09-09T10:57:56.948Z,76.62
2017-09-09T10:59:08.967Z,76.32
2017-09-09T11:00:21.917Z,76.32
2017-09-09T11:01:34.237Z,76.9
2017-09-09T11:02:46.564Z,77.19
2017-09-09T11:03:58.953Z,77.67
2017-09-09T11:05:10.972Z,78.63
2017-09-09T11:06:23.519Z,79.78
2017-09-09T11:07:35.760Z,80.74
2017-09-09T11:08:47.757Z,81.31
2017-09-09T11:10:00.064Z,84.28
2017-09-09T11:11:12.734Z,83.61
2017-09-09T11:12:25.305Z,85.92
2017-09-09T11:13:37.564Z,86.3
2017-09-09T11:14:50.171Z,85.25
2017-09-09T11:16:02.126Z,84.77
2017-09-09T11:17:14.454Z,86.3
2017-09-09T11:18:26.727Z,87.16
2017-09-09T11:19:39.319Z,87.84
2017-09-09T11:20:51.975Z,87.64
2017-09-09T11:22:04.584Z,86.78
2017-09-09T11:23:17.169Z,86.58
2017-09-09T11:24:29.457Z,86.97
2017-09-09T11:25:41.746Z,88.84
2017-09-09T11:26:54.378Z,91.14
2017-09-09T11:28:06.387Z,90.28
2017-09-09T11:29:18.951Z,89.9
2017-09-09T11:30:31.204Z,90.47
2017-09-09T11:31:43.766Z,91.63
2017-09-09T11:32:56.409Z,89.42
2017-09-09T11:34:08.291Z,90.57
2017-09-09T11:35:20.259Z,90.47
2017-09-09T11:36:31.881Z,89.51
2017-09-09T11:37:43.787Z,90
2017-09-09T11:38:56.423Z,90.47
2017-09-09T11:40:09.012Z,91.34
2017-09-09T11:41:21.243Z,90.47
2017-09-09T11:42:33.790Z,89.71
2017-09-09T11:43:46.356Z,89.13
2017-09-09T11:44:58.003Z,89.8
2017-09-09T11:46:10.326Z,90.47
2017-09-09T11:47:22.943Z,89.23
2017-09-09T11:48:34.952Z,91.43
2017-09-09T11:49:47.170Z,90.57
2017-09-09T11:50:59.178Z,90.28
2017-09-09T11:52:11.796Z,88.84
2017-09-09T11:53:24.338Z,87.5
2017-09-09T11:54:36.634Z,86.83
2017-09-09T11:55:49.168Z,88.17
2017-09-09T11:57:01.144Z,90
2017-09-09T11:58:13.113Z,88.75
2017-09-09T11:59:25.411Z,89.32
2017-09-09T12:00:38.047Z,90
2017-09-09T12:01:50.656Z,89.9
2017-09-09T12:03:02.612Z,90.47
2017-09-09T12:04:15.230Z,88.84
2017-09-09T12:05:27.470Z,88.94
2017-09-09T12:06:39.129Z,88.75
2017-09-09T12:07:50.745Z,89.42
2017-09-09T12:09:03.013Z,88.84
2017-09-09T12:10:15.571Z,90.28
2017-09-09T12:11:27.531Z,89.51
2017-09-09T12:12:40.112Z,91.82
2017-09-09T12:13:52.722Z,91.43
2017-09-09T12:15:05.354Z,91.05
2017-09-09T12:16:17.616Z,90.67
2017-09-09T12:17:30.215Z,90.19
2017-09-09T12:18:42.812Z,90.57
2017-09-09T12:19:55.343Z,91.14
2017-09-09T12:21:07.296Z,91.72
2017-09-09T12:22:19.617Z,91.39
2017-09-09T12:23:32.213Z,90.81
2017-09-09T12:24:43.950Z,91.39
2017-09-09T12:25:56.528Z,91.63
2017-09-09T12:27:09.391Z,90.33
2017-09-09T12:28:21.966Z,90.91
2017-09-09T12:29:34.542Z,90.76
2017-09-09T12:30:46.843Z,90.62
2017-09-09T12:31:59.445Z,89.86
2017-09-09T12:33:12.030Z,90.19
2017-09-09T12:34:24.734Z,90.09
2017-09-09T12:35:37.042Z,92.01
2017-09-09T12:36:49.016Z,89.8
2017-09-09T12:38:01.240Z,90.28
2017-09-09T12:39:13.230Z,91.63
2017-09-09T12:40:25.230Z,92.3
2017-09-09T12:41:37.530Z,94.4
2017-09-09T12:42:50.101Z,91.91
2017-09-09T12:44:02.330Z,93.06
2017-09-09T12:45:14.951Z,93.63
2017-09-09T12:46:27.256Z,94.79
2017-09-09T12:47:39.818Z,93.93
2017-09-09T12:48:52.078Z,94.31
2017-09-09T12:50:04.348Z,93.26
2017-09-09T12:51:16.665Z,93.06
2017-09-09T12:52:28.910Z,93.26
2017-09-09T12:53:41.221Z,93.06
2017-09-09T12:54:53.479Z,92.97
2017-09-09T12:56:05.487Z,91.91
2017-09-09T12:57:18.096Z,92.3
2017-09-09T12:58:30.663Z,91.53
2017-09-09T12:59:43.210Z,90.76
2017-09-09T13:00:55.782Z,90.72
2017-09-09T13:02:08.377Z,89.76
2017-09-09T13:03:21.018Z,89.28
2017-09-09T13:04:32.968Z,89.18
2017-09-09T13:05:45.836Z,89.76
2017-09-09T13:06:58.134Z,88.13
2017-09-09T13:08:10.750Z,88.03
2017-09-09T13:09:23.047Z,87.94
2017-09-09T13:10:35.654Z,88.32
2017-09-09T13:11:48.241Z,87.65
2017-09-09T13:13:00.839Z,89.28
2017-09-09T13:14:13.092Z,89.37
2017-09-09T13:15:25.355Z,88.99
2017-09-09T13:16:37.271Z,87.74
2017-09-09T13:17:49.847Z,87.08
2017-09-09T13:19:02.440Z,86.84
2017-09-09T13:20:14.962Z,87.17
2017-09-09T13:21:27.252Z,86.98
2017-09-09T13:22:39.170Z,87.08
2017-09-09T13:23:51.755Z,86.5
2017-09-09T13:25:04.040Z,85.64
2017-09-09T13:26:16.664Z,85.93
2017-09-09T13:27:28.932Z,87.94
2017-09-09T13:28:41.235Z,88.03
2017-09-09T13:29:53.848Z,87.41
2017-09-09T13:31:06.144Z,86.55
2017-09-09T13:32:18.175Z,85.74
2017-09-09T13:33:30.171Z,87.51
2017-09-09T13:34:42.411Z,86.6
2017-09-09T13:35:54.968Z,87.55
2017-09-09T13:37:06.909Z,87.27
2017-09-09T13:38:19.503Z,86.27
2017-09-09T13:39:31.801Z,86.98
2017-09-09T13:40:44.087Z,87.65
2017-09-09T13:41:56.654Z,86.6
2017-09-09T13:43:08.886Z,87.74
2017-09-09T13:44:21.483Z,86.5
2017-09-09T13:45:34.144Z,86.31
2017-09-09T13:46:46.762Z,87.84
2017-09-09T13:47:59.285Z,88.99
2017-09-09T13:49:11.881Z,89.47
2017-09-09T13:50:24.208Z,87.94
2017-09-09T13:51:36.200Z,89.86
2017-09-09T13:52:48.832Z,89.76
2017-09-09T13:54:01.397Z,90.33
2017-09-09T13:55:13.688Z,90.91
2017-09-09T13:56:26.344Z,90.62
2017-09-09T13:57:38.608Z,91.39
2017-09-09T13:58:50.871Z,91.1
2017-09-09T14:00:03.168Z,90.62
2017-09-09T14:01:15.734Z,90.33
2017-09-09T14:02:27.406Z,91.1
2017-09-09T14:03:39.387Z,90.23
2017-09-09T14:04:51.975Z,90.05
2017-09-09T14:06:04.195Z,90.28
2017-09-09T14:07:16.467Z,91.05
2017-09-09T14:08:29.084Z,90.47
2017-09-09T14:09:41.392Z,89.8
2017-09-09T14:10:54.028Z,91.91
2017-09-09T14:12:05.682Z,92.1
2017-09-09T14:13:17.625Z,92.01
2017-09-09T14:14:29.962Z,92.3
2017-09-09T14:15:41.906Z,92.1
2017-09-09T14:16:54.514Z,93.63
2017-09-09T14:18:06.825Z,93.06
2017-09-09T14:19:18.505Z,94.02
2017-09-09T14:20:30.771Z,93.26
2017-09-09T14:21:43.085Z,93.88
2017-09-09T14:22:54.999Z,93.11
2017-09-09T14:24:07.290Z,93.68
2017-09-09T14:25:19.598Z,93.11
2017-09-09T14:26:32.229Z,94.17
2017-09-09T14:27:44.513Z,94.07
2017-09-09T14:28:56.759Z,93.88
2017-09-09T14:30:09.372Z,94.45
2017-09-09T14:31:21.974Z,93.78
2017-09-09T14:32:34.247Z,93.49
2017-09-09T14:33:46.799Z,95.41
2017-09-09T14:34:59.417Z,93.78
2017-09-09T14:36:11.677Z,93.68
2017-09-09T14:37:24.217Z,93.68
2017-09-09T14:38:36.778Z,94.07
2017-09-09T14:39:49.082Z,94.45
2017-09-09T14:41:01.409Z,94.79
2017-09-09T14:42:13.293Z,93.63
2017-09-09T14:43:25.893Z,94.98
2017-09-09T14:44:37.897Z,94.21
2017-09-09T14:45:50.527Z,94.21
2017-09-09T14:47:03.094Z,94.98
2017-09-09T14:48:15.347Z,93.73
2017-09-09T14:49:27.921Z,96.47
2017-09-09T14:50:40.568Z,95.98
2017-09-09T14:51:52.854Z,95.89
2017-09-09T14:53:04.824Z,96.08
2017-09-09T14:54:17.443Z,96.56
2017-09-09T14:55:29.775Z,97.33
2017-09-09T14:56:42.409Z,96.47
2017-09-09T14:57:55.023Z,96.37
2017-09-09T14:59:07.262Z,96.08
2017-09-09T15:00:19.929Z,97.61
2017-09-09T15:01:32.238Z,96.56
2017-09-09T15:02:44.437Z,97.04
2017-09-09T15:03:57.001Z,96.66
2017-09-09T15:05:09.614Z,97.04
2017-09-09T15:06:22.210Z,97.42
2017-09-09T15:07:33.896Z,97.33
2017-09-09T15:08:46.194Z,97.91
2017-09-09T15:09:58.487Z,98.77
2017-09-09T15:11:11.106Z,98.48
2017-09-09T15:12:23.414Z,97.33
2017-09-09T15:13:35.754Z,97.52
2017-09-09T15:14:48.380Z,98.24
2017-09-09T15:16:00.393Z,98.67
2017-09-09T15:17:12.628Z,98.43
2017-09-09T15:18:24.849Z,98.24
2017-09-09T15:19:37.355Z,99.01
2017-09-09T15:20:49.984Z,98.91
2017-09-09T15:22:02.561Z,99.3
2017-09-09T15:23:15.137Z,98.63
2017-09-09T15:24:27.352Z,99.2
2017-09-09T15:25:39.655Z,99.1
2017-09-09T15:26:51.918Z,99.1
2017-09-09T15:28:03.906Z,99.2
2017-09-09T15:29:16.141Z,99.1
2017-09-09T15:30:28.091Z,99.87
2017-09-09T15:31:40.360Z,99.49
2017-09-09T15:32:52.990Z,99.34
2017-09-09T15:34:05.303Z,99.15
2017-09-09T15:35:17.948Z,99.99